Portada
METAR-TAF:

METAR-TAF

Aeroports :

Aeroport de Sania Ramel

Tetuan, Marroc

latitud: 35-35N, longitud: 005-20W, altitud: 10 m

Observació

L'informe es va fer fa 35 minuts, a les 14:00 UTC
Vent 13 kt del Oest/Sud-Oest, variant entre Sud-Oest i Oest/Nord-Oest
Temperatura 24°C
Humitat 44%
Pressió 1023 hPa
Visibilitat 10 km o més
sense núvols per sota de 1500 mi sense presència de cumulonimbus.

METAR: GMTN 251400Z 24013KT 220V290 CAVOK 24/11 Q1023 NOSIG

Hora: 15:35 (14:35 UTC)


TAF: manca

Observacions i pronòstics meteorològics de més de 4000 aeroports (METAR i TAF).

Les estacions disponibles són els punts grocs i vermells al mapa.

Posi el ratolí al punt desitjat per veure el nom de l'estació.

Feu clic per veure les observacions i els pronòstics meteorològics.

Per canviar el mapa: feu clic els botons verds amb una creu de color negre per apropar; al botó verd amb un guió per allunyar la imatge; o en les fletxes verdes per a mapes adjacents.


METAR-TAF: